Terminal Aerodrome Forecast
Issued by NWS

Home | Current Version | Previous Version | Text Only | Print | Product List | Glossary Off
Versions: 1 2 3 4 5 6 7 8 9 10 11 12

283
FTUS42 KMHX 180218 AAA
TAFOAJ
TAF AMD
KOAJ 180218Z 1802/1824 01010G20KT 2SM -SN OVC007
     FM180700 34010KT P6SM SCT007 BKN015
     FM180900 33010KT P6SM SCT100
     FM181800 29009KT P6SM SKC
      AMD LTD TO CLD VIS AND WIND=

USA.gov is the U.S. government's official web portal to all federal, state and local government web resources and services.